createdAt,value
2024-02-05T00:01:52.635Z,7.57
2024-02-05T00:04:22.650Z,7.58
2024-02-05T00:06:51.604Z,7.62
2024-02-05T00:09:21.013Z,7.45
2024-02-05T00:11:50.090Z,7.57
2024-02-05T00:14:19.412Z,7.51
2024-02-05T00:16:48.308Z,7.46
2024-02-05T00:19:19.105Z,7.34
2024-02-05T00:21:47.935Z,7.26
2024-02-05T00:24:17.073Z,7.26
2024-02-05T00:26:46.049Z,7.22
2024-02-05T00:29:15.280Z,7.28
2024-02-05T00:31:46.913Z,7.13
2024-02-05T00:34:16.087Z,7.11
2024-02-05T00:36:46.555Z,7.17
2024-02-05T00:39:15.700Z,7.24
2024-02-05T00:41:44.555Z,7.23
2024-02-05T00:44:13.677Z,7.41
2024-02-05T00:46:42.569Z,7.37
2024-02-05T00:49:11.874Z,7.21
2024-02-05T00:51:40.869Z,7.05
2024-02-05T00:54:11.575Z,7.28
2024-02-05T00:56:40.375Z,7.20
2024-02-05T00:59:09.718Z,7.21
2024-02-05T01:01:38.690Z,7.25
2024-02-05T01:04:08.001Z,7.08
2024-02-05T01:06:36.950Z,7.34
2024-02-05T01:09:10.884Z,7.43
2024-02-05T01:11:41.276Z,7.32
2024-02-05T01:14:11.446Z,7.25
2024-02-05T01:16:40.453Z,7.21
2024-02-05T01:19:10.008Z,7.07
2024-02-05T01:21:38.904Z,7.04
2024-02-05T01:24:08.745Z,7.09
2024-02-05T01:26:37.626Z,7.15
2024-02-05T01:29:09.034Z,7.03
2024-02-05T01:31:37.958Z,7.01
2024-02-05T01:34:07.118Z,7.16
2024-02-05T01:36:36.031Z,7.03
2024-02-05T01:39:05.751Z,7.02
2024-02-05T01:41:34.568Z,6.94
2024-02-05T01:44:03.923Z,7.06
2024-02-05T01:46:34.247Z,6.99
2024-02-05T01:49:04.118Z,6.94
2024-02-05T01:51:33.741Z,6.98
2024-02-05T01:54:02.897Z,7.00
2024-02-05T01:56:32.840Z,7.05
2024-02-05T01:59:02.091Z,6.97
2024-02-05T02:01:31.012Z,6.93
2024-02-05T02:04:01.672Z,6.85
2024-02-05T02:06:30.518Z,6.89
2024-02-05T02:08:59.908Z,6.83
2024-02-05T02:11:28.791Z,6.87
2024-02-05T02:13:58.035Z,6.83
2024-02-05T02:16:29.233Z,6.89
2024-02-05T02:18:58.492Z,7.14
2024-02-05T02:21:28.924Z,7.27
2024-02-05T02:23:59.433Z,7.14
2024-02-05T02:26:28.849Z,7.16
2024-02-05T02:28:57.992Z,7.14
2024-02-05T02:31:26.789Z,7.00
2024-02-05T02:33:58.394Z,7.12
2024-02-05T02:36:28.828Z,7.32
2024-02-05T02:39:01.761Z,7.10
2024-02-05T02:41:31.905Z,7.22
2024-02-05T02:44:01.992Z,7.22
2024-02-05T02:46:30.913Z,7.05
2024-02-05T02:49:00.159Z,7.15
2024-02-05T02:51:29.778Z,6.90
2024-02-05T02:54:01.223Z,6.82
2024-02-05T02:56:30.462Z,6.90
2024-02-05T02:58:59.289Z,6.71
2024-02-05T03:01:28.639Z,6.68
2024-02-05T03:03:57.695Z,6.62
2024-02-05T03:06:27.665Z,6.54
2024-02-05T03:08:56.491Z,6.43
2024-02-05T03:11:27.014Z,6.34
2024-02-05T03:13:55.913Z,6.41
2024-02-05T03:16:25.346Z,6.32
2024-02-05T03:18:54.392Z,6.51
2024-02-05T03:21:23.703Z,6.43
2024-02-05T03:23:52.548Z,6.38
2024-02-05T03:26:21.869Z,6.34
2024-02-05T03:28:52.081Z,6.36
2024-02-05T03:31:21.340Z,6.31
2024-02-05T03:33:50.357Z,6.38
2024-02-05T03:36:19.642Z,6.38
2024-02-05T03:38:48.410Z,6.41
2024-02-05T03:41:17.576Z,6.41
2024-02-05T03:43:48.276Z,6.37
2024-02-05T03:46:18.807Z,6.32
2024-02-05T03:48:53.797Z,6.43
2024-02-05T03:51:23.232Z,6.39
2024-02-05T03:53:52.064Z,6.35
2024-02-05T03:56:21.351Z,6.55
2024-02-05T03:58:50.775Z,6.45
2024-02-05T04:01:21.373Z,6.33
2024-02-05T04:03:50.284Z,6.33
2024-02-05T04:06:19.562Z,6.24
2024-02-05T04:08:48.871Z,6.36
2024-02-05T04:11:18.074Z,6.49
2024-02-05T04:13:47.202Z,6.49
2024-02-05T04:16:16.397Z,6.45
2024-02-05T04:18:46.610Z,6.28
2024-02-05T04:21:15.829Z,6.40
2024-02-05T04:23:44.550Z,6.30
2024-02-05T04:26:17.269Z,6.35
2024-02-05T04:28:46.107Z,6.48
2024-02-05T04:31:15.386Z,6.40
2024-02-05T04:33:45.048Z,6.44
2024-02-05T04:36:16.574Z,6.35
2024-02-05T04:38:45.603Z,6.41
2024-02-05T04:41:14.791Z,6.50
2024-02-05T04:43:43.652Z,6.53
2024-02-05T04:46:13.531Z,6.49
2024-02-05T04:48:42.521Z,6.57
2024-02-05T04:51:33.234Z,6.66
2024-02-05T04:54:03.886Z,6.62
2024-02-05T04:56:33.224Z,6.60
2024-02-05T04:59:02.137Z,6.50
2024-02-05T05:01:31.362Z,6.62
2024-02-05T05:04:00.351Z,6.42
2024-02-05T05:06:29.781Z,6.83
2024-02-05T05:08:58.720Z,6.49
2024-02-05T05:11:29.399Z,6.71
2024-02-05T05:13:58.365Z,6.67
2024-02-05T05:16:28.960Z,6.56
2024-02-05T05:19:00.329Z,6.74
2024-02-05T05:21:29.877Z,6.65
2024-02-05T05:23:58.851Z,6.46
2024-02-05T05:26:29.590Z,6.71
2024-02-05T05:28:58.522Z,6.88
2024-02-05T05:31:27.965Z,6.65
2024-02-05T05:33:57.592Z,6.70
2024-02-05T05:36:27.157Z,6.70
2024-02-05T05:38:59.805Z,6.57
2024-02-05T05:41:36.359Z,6.70
2024-02-05T05:44:06.185Z,6.67
2024-02-05T05:46:36.180Z,6.74
2024-02-05T05:49:07.276Z,6.64
2024-02-05T05:51:38.594Z,6.53
2024-02-05T05:54:10.064Z,6.60
2024-02-05T05:56:42.039Z,6.67
2024-02-05T05:59:12.596Z,6.39
2024-02-05T06:01:41.942Z,6.33
2024-02-05T06:04:11.529Z,6.39
2024-02-05T06:06:41.091Z,6.46
2024-02-05T06:09:13.046Z,6.56
2024-02-05T06:11:43.682Z,6.43
2024-02-05T06:14:12.804Z,6.51
2024-02-05T06:16:42.272Z,6.38
2024-02-05T06:19:11.370Z,6.25
2024-02-05T06:21:42.710Z,6.22
2024-02-05T06:24:11.761Z,6.51
2024-02-05T06:26:45.844Z,6.48
2024-02-05T06:29:20.365Z,6.24
2024-02-05T06:31:50.073Z,6.22
2024-02-05T06:34:19.126Z,6.28
2024-02-05T06:36:49.072Z,6.10
2024-02-05T06:39:18.072Z,6.28
2024-02-05T06:41:47.462Z,6.40
2024-02-05T06:44:21.153Z,6.34
2024-02-05T06:46:54.795Z,6.43
2024-02-05T06:49:24.140Z,6.20
2024-02-05T06:51:54.822Z,6.37
2024-02-05T06:54:27.317Z,6.43
2024-02-05T06:56:58.020Z,6.20
2024-02-05T06:59:27.122Z,6.33
2024-02-05T07:01:59.487Z,6.36
2024-02-05T07:04:28.755Z,6.46
2024-02-05T07:07:01.378Z,6.29
2024-02-05T07:09:32.964Z,6.18
2024-02-05T07:12:02.763Z,6.37
2024-02-05T07:14:34.082Z,6.48
2024-02-05T07:17:05.540Z,6.42
2024-02-05T07:19:37.513Z,6.60
2024-02-05T07:22:07.467Z,6.78
2024-02-05T07:24:40.552Z,6.85
2024-02-05T07:27:33.140Z,6.85
2024-02-05T07:30:02.052Z,6.50
2024-02-05T07:32:34.197Z,6.66
2024-02-05T07:35:04.311Z,6.66
2024-02-05T07:37:36.958Z,6.44
2024-02-05T07:40:08.852Z,6.62
2024-02-05T07:42:40.467Z,6.78
2024-02-05T07:45:10.236Z,6.76
2024-02-05T07:47:43.241Z,6.81
2024-02-05T07:50:14.956Z,6.72
2024-02-05T07:52:57.808Z,6.69
2024-02-05T07:55:27.269Z,6.69
2024-02-05T07:57:58.029Z,6.65
2024-02-05T08:00:27.082Z,6.75
2024-02-05T08:03:18.587Z,6.67
2024-02-05T08:05:56.467Z,6.83
2024-02-05T08:08:30.697Z,6.94
2024-02-05T08:11:03.810Z,7.02
2024-02-05T08:13:39.425Z,7.04
2024-02-05T08:16:26.674Z,6.97
2024-02-05T08:18:57.518Z,7.14
2024-02-05T08:21:26.584Z,6.92
2024-02-05T08:23:56.033Z,7.06
2024-02-05T08:26:25.012Z,7.07
2024-02-05T08:28:54.165Z,6.97
2024-02-05T08:31:23.125Z,6.93
2024-02-05T08:33:52.800Z,6.97
2024-02-05T08:36:23.086Z,7.07
2024-02-05T08:38:54.474Z,7.10
2024-02-05T08:41:23.404Z,7.11
2024-02-05T08:43:52.733Z,7.12
2024-02-05T08:46:30.824Z,7.19
2024-02-05T08:49:03.721Z,7.11
2024-02-05T08:51:37.690Z,7.12
2024-02-05T08:54:07.082Z,7.34
2024-02-05T08:56:35.956Z,7.43
2024-02-05T08:59:05.353Z,7.52
2024-02-05T09:01:34.613Z,7.36
2024-02-05T09:04:04.115Z,7.59
2024-02-05T09:06:34.368Z,7.47
2024-02-05T09:09:06.622Z,7.76
2024-02-05T09:11:45.561Z,7.88
2024-02-05T09:14:18.627Z,7.70
2024-02-05T09:16:47.580Z,7.67
2024-02-05T09:19:20.241Z,7.59
2024-02-05T09:21:50.831Z,7.65
2024-02-05T09:24:20.045Z,7.52
2024-02-05T09:26:48.967Z,7.59
2024-02-05T09:29:18.193Z,7.46
2024-02-05T09:31:51.094Z,7.75
2024-02-05T09:34:25.616Z,7.57
2024-02-05T09:36:56.079Z,7.88
2024-02-05T09:39:25.792Z,7.65
2024-02-05T09:41:55.344Z,7.54
2024-02-05T09:44:29.703Z,7.74
2024-02-05T09:46:59.947Z,7.71
2024-02-05T09:49:32.560Z,7.69
2024-02-05T09:52:05.563Z,7.55
2024-02-05T09:54:35.001Z,7.58
2024-02-05T09:57:03.940Z,7.52
2024-02-05T09:59:33.246Z,7.48
2024-02-05T10:02:19.548Z,7.64
2024-02-05T10:04:50.377Z,7.52
2024-02-05T10:07:26.576Z,7.61
2024-02-05T10:09:56.729Z,7.51
2024-02-05T10:12:36.572Z,7.53
2024-02-05T10:15:12.709Z,7.54
2024-02-05T10:17:44.498Z,7.54
2024-02-05T10:20:16.176Z,7.38
2024-02-05T10:23:02.813Z,7.48
2024-02-05T10:25:33.592Z,7.51
2024-02-05T10:28:04.007Z,7.48
2024-02-05T10:30:37.700Z,7.68
2024-02-05T10:33:06.946Z,7.63
2024-02-05T10:35:40.976Z,7.50
2024-02-05T10:38:11.412Z,7.47
2024-02-05T10:40:45.614Z,7.41
2024-02-05T10:43:16.157Z,7.53
2024-02-05T10:45:45.547Z,7.58
2024-02-05T10:48:14.468Z,7.69
2024-02-05T10:50:44.119Z,7.62
2024-02-05T10:53:14.902Z,7.90
2024-02-05T10:55:47.065Z,7.71
2024-02-05T10:58:19.855Z,7.75
2024-02-05T11:00:49.209Z,7.90
2024-02-05T11:03:19.223Z,7.64
2024-02-05T11:05:49.771Z,7.56
2024-02-05T11:08:22.085Z,7.56
2024-02-05T11:10:52.900Z,7.88
2024-02-05T11:13:23.006Z,7.80
2024-02-05T11:15:53.737Z,7.67
2024-02-05T11:18:29.361Z,7.63
2024-02-05T11:21:05.573Z,7.71
2024-02-05T11:23:35.981Z,7.71
2024-02-05T11:26:05.338Z,7.88
2024-02-05T11:28:39.807Z,8.00
2024-02-05T11:31:18.087Z,7.86
2024-02-05T11:33:47.239Z,7.90
2024-02-05T11:36:16.596Z,7.94
2024-02-05T11:38:48.018Z,8.07
2024-02-05T11:41:22.530Z,7.96
2024-02-05T11:43:51.382Z,7.89
2024-02-05T11:46:20.773Z,7.68
2024-02-05T11:48:54.365Z,7.65
2024-02-05T11:51:23.791Z,7.67
2024-02-05T11:53:58.242Z,7.75
2024-02-05T11:56:27.778Z,7.74
2024-02-05T11:58:56.608Z,7.81
2024-02-05T12:01:26.071Z,7.83
2024-02-05T12:03:55.084Z,7.82
2024-02-05T12:06:24.573Z,7.66
2024-02-05T12:08:57.465Z,7.55
2024-02-05T12:12:01.369Z,7.82
2024-02-05T12:14:37.094Z,7.69
2024-02-05T12:17:11.977Z,7.76
2024-02-05T12:19:41.178Z,7.81
2024-02-05T12:22:16.245Z,7.72
2024-02-05T12:24:46.730Z,7.81
2024-02-05T12:27:18.838Z,7.83
2024-02-05T12:29:47.784Z,7.81
2024-02-05T12:32:17.160Z,7.84
2024-02-05T12:34:49.254Z,7.73
2024-02-05T12:37:19.870Z,7.87
2024-02-05T12:39:59.791Z,7.76
2024-02-05T12:42:33.174Z,7.78
2024-02-05T12:45:11.901Z,7.69
2024-02-05T12:47:44.821Z,7.65
2024-02-05T12:50:13.792Z,7.59
2024-02-05T12:52:42.963Z,7.85
2024-02-05T12:55:40.030Z,8.11
2024-02-05T12:58:11.145Z,7.75
2024-02-05T13:00:40.049Z,7.65
2024-02-05T13:03:10.991Z,7.71
2024-02-05T13:05:43.091Z,7.80
2024-02-05T13:08:15.248Z,7.78
2024-02-05T13:10:46.462Z,7.66
2024-02-05T13:13:15.999Z,7.61
2024-02-05T13:15:45.325Z,7.59
2024-02-05T13:18:15.046Z,7.70
2024-02-05T13:20:44.843Z,7.98
2024-02-05T13:23:14.337Z,7.87
2024-02-05T13:25:46.269Z,7.67
2024-02-05T13:28:20.899Z,7.88
2024-02-05T13:30:50.731Z,7.88
2024-02-05T13:33:22.046Z,8.08
2024-02-05T13:35:50.969Z,8.11
2024-02-05T13:38:20.174Z,8.17
2024-02-05T13:40:49.047Z,7.67
2024-02-05T13:43:18.371Z,7.90
2024-02-05T13:45:52.468Z,8.02
2024-02-05T13:48:23.412Z,8.11
2024-02-05T13:50:52.543Z,7.72
2024-02-05T13:53:21.740Z,7.82
2024-02-05T13:55:50.649Z,7.83
2024-02-05T13:58:19.846Z,7.80
2024-02-05T14:00:50.332Z,7.79
2024-02-05T14:03:19.491Z,7.66
2024-02-05T14:05:48.617Z,7.58
2024-02-05T14:08:17.924Z,7.73
2024-02-05T14:10:48.436Z,7.68
2024-02-05T14:13:17.803Z,7.70
2024-02-05T14:19:51.620Z,7.97
2024-02-05T14:22:20.940Z,7.96
2024-02-05T14:24:49.939Z,7.90
2024-02-05T14:27:19.254Z,7.69
2024-02-05T14:29:48.222Z,7.72
2024-02-05T14:32:17.502Z,7.71
2024-02-05T14:34:46.520Z,7.67
2024-02-05T14:37:17.207Z,7.56
2024-02-05T14:39:46.987Z,7.65
2024-02-05T14:42:16.544Z,7.70
2024-02-05T14:44:45.329Z,7.64
2024-02-05T14:47:14.629Z,7.87
2024-02-05T14:49:43.786Z,7.70
2024-02-05T14:52:13.022Z,7.74
2024-02-05T14:54:46.886Z,7.53
2024-02-05T14:57:16.208Z,7.65
2024-02-05T14:59:45.085Z,7.98
2024-02-05T15:02:15.721Z,7.75
2024-02-05T15:04:44.620Z,7.71
2024-02-05T15:07:14.911Z,7.70
2024-02-05T15:09:46.012Z,7.62
2024-02-05T15:12:15.274Z,7.52
2024-02-05T15:14:44.152Z,7.65
2024-02-05T15:17:13.238Z,7.57
2024-02-05T15:19:42.628Z,7.57
2024-02-05T15:22:14.597Z,7.44
2024-02-05T15:24:43.434Z,7.57
2024-02-05T15:27:14.039Z,7.46
2024-02-05T15:29:42.819Z,7.54
2024-02-05T15:32:12.083Z,7.65
2024-02-05T15:34:42.294Z,7.37
2024-02-05T15:37:11.570Z,7.65
2024-02-05T15:39:40.564Z,7.65
2024-02-05T15:42:10.534Z,7.45
2024-02-05T15:44:40.963Z,7.38
2024-02-05T15:47:10.137Z,7.20
2024-02-05T15:49:39.182Z,7.43
2024-02-05T15:52:08.496Z,7.48
2024-02-05T15:54:38.054Z,7.59
2024-02-05T15:57:07.294Z,7.50
2024-02-05T15:59:36.142Z,7.41
2024-02-05T16:02:09.178Z,7.59
2024-02-05T16:04:38.135Z,7.41
2024-02-05T16:07:07.499Z,7.16
2024-02-05T16:09:36.615Z,7.01
2024-02-05T16:12:06.033Z,6.98
2024-02-05T16:14:34.994Z,7.14
2024-02-05T16:17:05.101Z,7.27
2024-02-05T16:19:35.451Z,7.40
2024-02-05T16:22:04.897Z,7.05
2024-02-05T16:24:33.994Z,7.08
2024-02-05T16:27:03.159Z,7.15
2024-02-05T16:29:31.985Z,6.90
2024-02-05T16:32:01.177Z,7.11
2024-02-05T16:34:30.201Z,6.99
2024-02-05T16:37:00.928Z,6.89
2024-02-05T16:39:29.783Z,6.66
2024-02-05T16:41:59.027Z,6.70
2024-02-05T16:44:27.883Z,6.62
2024-02-05T16:46:57.174Z,6.56
2024-02-05T16:49:27.510Z,6.51
2024-02-05T16:52:01.265Z,6.39
2024-02-05T16:54:30.857Z,6.31
2024-02-05T16:56:59.964Z,6.15
2024-02-05T16:59:28.948Z,6.17
2024-02-05T17:01:58.219Z,6.23
2024-02-05T17:04:27.185Z,6.09
2024-02-05T17:06:56.548Z,6.03
2024-02-05T17:09:26.750Z,5.92
2024-02-05T17:11:56.142Z,5.85
2024-02-05T17:14:25.071Z,5.77
2024-02-05T17:16:59.105Z,5.66
2024-02-05T17:19:30.799Z,5.62
2024-02-05T17:22:00.199Z,5.47
2024-02-05T17:24:32.339Z,5.56
2024-02-05T17:27:05.038Z,5.48
2024-02-05T17:29:33.981Z,5.41
2024-02-05T17:32:03.254Z,5.42
2024-02-05T17:34:34.667Z,5.35
2024-02-05T17:37:04.332Z,5.42
2024-02-05T17:39:37.779Z,5.33
2024-02-05T17:42:07.155Z,5.30
2024-02-05T17:44:40.578Z,5.22
2024-02-05T17:47:15.581Z,5.16
2024-02-05T17:49:48.370Z,5.31
2024-02-05T17:52:17.725Z,5.44
2024-02-05T17:54:47.993Z,5.28
2024-02-05T17:57:17.784Z,5.24
2024-02-05T17:59:49.023Z,5.19
2024-02-05T18:02:18.690Z,5.11
2024-02-05T18:04:47.881Z,5.14
2024-02-05T18:07:17.388Z,5.22
2024-02-05T18:09:47.796Z,5.20
2024-02-05T18:12:21.551Z,5.14
2024-02-05T18:14:50.405Z,5.28
2024-02-05T18:17:19.524Z,5.20
2024-02-05T18:19:48.453Z,5.39
2024-02-05T18:22:17.823Z,5.26
2024-02-05T18:24:50.342Z,5.14
2024-02-05T18:27:22.010Z,5.14
2024-02-05T18:29:53.365Z,5.18
2024-02-05T18:32:22.604Z,5.16
2024-02-05T18:34:51.466Z,5.01
2024-02-05T18:37:22.765Z,5.02
2024-02-05T18:39:51.661Z,4.92
2024-02-05T18:42:22.462Z,5.05
2024-02-05T18:44:51.296Z,4.97
2024-02-05T18:47:23.564Z,4.99
2024-02-05T18:49:55.677Z,4.92
2024-02-05T18:52:26.986Z,4.87
2024-02-05T18:54:57.979Z,4.91
2024-02-05T18:57:30.965Z,4.93
2024-02-05T18:59:59.774Z,4.84
2024-02-05T19:02:29.113Z,5.00
2024-02-05T19:04:58.190Z,5.09
2024-02-05T19:07:27.711Z,5.19
2024-02-05T19:09:56.544Z,5.25
2024-02-05T19:12:25.879Z,5.17
2024-02-05T19:14:57.307Z,5.04
2024-02-05T19:17:26.594Z,5.18
2024-02-05T19:19:55.686Z,5.11
2024-02-05T19:22:30.134Z,5.13
2024-02-05T19:25:01.207Z,5.17
2024-02-05T19:27:30.537Z,5.21
2024-02-05T19:30:00.805Z,5.33
2024-02-05T19:32:31.738Z,5.28
2024-02-05T19:35:01.386Z,5.30
2024-02-05T19:37:33.964Z,5.28
2024-02-05T19:40:03.244Z,5.25
2024-02-05T19:42:35.393Z,5.28
2024-02-05T19:45:05.975Z,5.37
2024-02-05T19:47:35.289Z,5.32
2024-02-05T19:50:04.700Z,5.24
2024-02-05T19:52:34.256Z,5.20
2024-02-05T19:55:08.823Z,5.30
2024-02-05T19:57:38.167Z,5.25
2024-02-05T20:00:09.263Z,5.27
2024-02-05T20:02:41.429Z,5.33
2024-02-05T20:05:10.842Z,5.32
2024-02-05T20:07:40.326Z,5.26
2024-02-05T20:10:14.358Z,5.33
2024-02-05T20:12:44.442Z,5.34
2024-02-05T20:15:17.570Z,5.30
2024-02-05T20:17:48.946Z,5.21
2024-02-05T20:20:18.222Z,5.15
2024-02-05T20:22:47.528Z,5.23
2024-02-05T20:25:19.341Z,4.96
2024-02-05T20:27:49.896Z,5.04
2024-02-05T20:30:20.672Z,5.01
2024-02-05T20:32:51.297Z,5.08
2024-02-05T20:35:20.788Z,5.05
2024-02-05T20:37:50.162Z,5.12
2024-02-05T20:40:20.625Z,5.06
2024-02-05T20:42:49.933Z,5.07
2024-02-05T20:45:20.436Z,4.92
2024-02-05T20:47:49.952Z,5.02
2024-02-05T20:50:22.743Z,5.07
2024-02-05T20:52:54.749Z,5.00
2024-02-05T20:55:23.584Z,4.82
2024-02-05T20:57:52.864Z,4.88
2024-02-05T21:00:23.410Z,4.96
2024-02-05T21:02:53.103Z,4.96
2024-02-05T21:05:24.151Z,4.72
2024-02-05T21:07:55.846Z,4.69
2024-02-05T21:10:24.818Z,4.82
2024-02-05T21:12:54.108Z,4.82
2024-02-05T21:15:29.413Z,4.82
2024-02-05T21:18:03.219Z,4.81
2024-02-05T21:20:32.238Z,4.80
2024-02-05T21:23:01.444Z,4.81
2024-02-05T21:25:30.585Z,4.73
2024-02-05T21:27:59.835Z,4.81
2024-02-05T21:30:40.207Z,4.84
2024-02-05T21:33:11.349Z,4.86
2024-02-05T21:35:43.752Z,4.85
2024-02-05T21:38:12.989Z,4.88
2024-02-05T21:40:42.023Z,4.93
2024-02-05T21:43:11.339Z,4.96
2024-02-05T21:45:41.722Z,4.98
2024-02-05T21:48:11.685Z,5.02
2024-02-05T21:50:40.918Z,5.04
2024-02-05T21:53:10.313Z,5.05
2024-02-05T21:55:39.320Z,5.08
2024-02-05T21:58:08.580Z,5.11
2024-02-05T22:00:37.562Z,5.14
2024-02-05T22:03:08.177Z,5.15
2024-02-05T22:05:37.244Z,5.14
2024-02-05T22:08:10.034Z,5.15
2024-02-05T22:10:39.119Z,5.15
2024-02-05T22:13:09.158Z,5.17
2024-02-05T22:15:38.218Z,5.16
2024-02-05T22:18:09.085Z,5.17
2024-02-05T22:20:38.028Z,5.18
2024-02-05T22:23:07.604Z,5.18
2024-02-05T22:25:38.176Z,5.22
2024-02-05T22:28:07.629Z,5.23
2024-02-05T22:30:36.525Z,5.22
2024-02-05T22:33:06.172Z,5.22
2024-02-05T22:35:36.854Z,5.19
2024-02-05T22:38:06.170Z,5.22
2024-02-05T22:40:37.537Z,5.20
2024-02-05T22:43:08.295Z,5.15
2024-02-05T22:45:37.312Z,5.17
2024-02-05T22:48:07.314Z,5.16
2024-02-05T22:50:37.593Z,5.20
2024-02-05T22:53:11.142Z,5.16
2024-02-05T22:55:40.526Z,5.17
2024-02-05T22:58:09.861Z,5.18
2024-02-05T23:00:39.652Z,5.15
2024-02-05T23:03:09.101Z,5.16
2024-02-05T23:05:39.843Z,5.15
2024-02-05T23:08:10.332Z,5.15
2024-02-05T23:10:39.323Z,5.14
2024-02-05T23:13:08.723Z,5.13
2024-02-05T23:15:37.732Z,5.14
2024-02-05T23:18:09.168Z,5.13
2024-02-05T23:20:39.525Z,5.09
2024-02-05T23:23:08.678Z,5.10
2024-02-05T23:25:40.889Z,5.08
2024-02-05T23:28:13.307Z,5.04
2024-02-05T23:30:42.832Z,5.04
2024-02-05T23:33:12.193Z,5.04
2024-02-05T23:35:42.459Z,5.05
2024-02-05T23:38:11.568Z,5.05
2024-02-05T23:40:40.492Z,5.03
2024-02-05T23:43:09.758Z,5.03
2024-02-05T23:45:41.596Z,5.00
2024-02-05T23:48:11.042Z,5.00
2024-02-05T23:50:40.446Z,5.00
2024-02-05T23:53:11.077Z,4.99
2024-02-05T23:55:39.953Z,4.98
2024-02-05T23:58:09.290Z,5.01
